Αρχική σελίδα
METAR-TAF:

METAR-TAF

Αεροδρόμια :

Florianópolis, Σάντα Καταρίνα, Βραζιλία

γεωγραφικό πλάτος: 27-40S, γεωγραφικό μήκος: 048-33W, υψόμετρο: 5 μ

Παρών καιρός

Η αναφορά έγινε 19 λεπτά πριν, στις 17:00 UTC
Άνεμος 7 kt από Δ
Θερμοκρασία 24°C
Υγρασία 27%
Πίεση 1006 hPa
Ορατότητα 10 χλμ και άνω
Δεν υπάρχουν νέφη με βάση κάτω από τα 1500 μ. και δεν υπάρχουν νέφη σωρειτομελανίτες.

METAR: SBFL 251700Z 27007KT CAVOK 24/04 Q1006

Χρόνος: 14:19 (17:19 UTC)

Πρόγνωση Καιρού

Η αναφορά έγινε 8 ώρες και 19 λεπτά πριν, στις 09:00 UTC
Η πρόγνωση ισχύει από τις 25 στις 12 UTC έως τις 26 στις 12 UTC
Άνεμος 12 kt από Δ
Ορατότητα 10 χλμ και άνω
Δεν υπάρχουν νέφη με βάση κάτω από τα 1500 μ. και δεν υπάρχουν νέφη σωρειτομελανίτες.
Καθιστάμενος
από 25 στις 20 UTC έως τις 25 στις 22 UTC
Άνεμος 5 kt από Δ

TAF: SBFL 250900Z 2512/2612 28012KT CAVOK TX25/2518Z TN14/2608Z BECMG 2520/2522 26005KT RMK PDW

Μετεωρολογικές αναφορές και προγνώσεις για περισσότερα από 4000 αεροδρόμια (δελτία METAR και TAF).

Οι διαθέσιμοι σταθμοί απεικονίζονται στο χάρτη με κίτρινες και κόκκινες κουκκίδες.

Μετακινήστε το ποντίκι πάνω από τις κουκκίδες για να δείτε το όνομα του σταθμού.

Στη συνέχεια, κάντε κλικ για να δείτε τις μετεωρολογικές αναφορές και τις προγνώσεις καιρού.

Για να αλλάξετε το χάρτη: κάντε κλικ στα πράσινα κουμπιά με τον μαύρο σταυρό για να ζουμάρετε, στο πράσινο κουμπί με την παύλα για να αφαιρέσετε το ζουμ ή στα πράσινα βέλη για να αντιπαραβάλλετε χάρτες.


METAR-TAF: